sensor_id;sensor_type;location;lat;lon;timestamp;P1;durP1;ratioP1;P2;durP2;ratioP2
72113;SDS011;59989;46.220;19.888;2023-05-07T00:02:25;1.00;;;0.40;;
72113;SDS011;59989;46.220;19.888;2023-05-07T00:05:28;0.70;;;0.27;;
72113;SDS011;59989;46.220;19.888;2023-05-07T00:08:31;1.60;;;0.60;;
72113;SDS011;59989;46.220;19.888;2023-05-07T00:11:33;1.38;;;0.57;;
72113;SDS011;59989;46.220;19.888;2023-05-07T00:14:38;3.55;;;1.00;;
72113;SDS011;59989;46.220;19.888;2023-05-07T00:17:41;0.80;;;0.30;;
72113;SDS011;59989;46.220;19.888;2023-05-07T00:20:43;1.27;;;0.43;;
72113;SDS011;59989;46.220;19.888;2023-05-07T00:23:46;0.80;;;0.30;;
72113;SDS011;59989;46.220;19.888;2023-05-07T00:26:48;1.00;;;0.73;;
72113;SDS011;59989;46.220;19.888;2023-05-07T00:29:51;1.27;;;0.50;;
72113;SDS011;59989;46.220;19.888;2023-05-07T00:32:53;0.90;;;0.32;;
72113;SDS011;59989;46.220;19.888;2023-05-07T00:35:56;1.00;;;0.40;;
72113;SDS011;59989;46.220;19.888;2023-05-07T00:38:59;1.37;;;0.40;;
72113;SDS011;59989;46.220;19.888;2023-05-07T00:42:03;0.73;;;0.28;;
72113;SDS011;59989;46.220;19.888;2023-05-07T00:45:06;0.80;;;0.30;;
72113;SDS011;59989;46.220;19.888;2023-05-07T00:48:10;1.23;;;0.43;;
72113;SDS011;59989;46.220;19.888;2023-05-07T00:51:12;0.73;;;0.30;;
72113;SDS011;59989;46.220;19.888;2023-05-07T00:54:15;1.37;;;0.63;;
72113;SDS011;59989;46.220;19.888;2023-05-07T00:57:18;1.80;;;0.60;;
72113;SDS011;59989;46.220;19.888;2023-05-07T01:00:22;1.20;;;0.50;;
72113;SDS011;59989;46.220;19.888;2023-05-07T01:03:24;1.90;;;0.73;;
72113;SDS011;59989;46.220;19.888;2023-05-07T01:06:28;1.00;;;0.40;;
72113;SDS011;59989;46.220;19.888;2023-05-07T01:09:33;0.97;;;0.30;;
72113;SDS011;59989;46.220;19.888;2023-05-07T01:12:37;1.70;;;0.63;;
72113;SDS011;59989;46.220;19.888;2023-05-07T01:15:42;3.83;;;0.60;;
72113;SDS011;59989;46.220;19.888;2023-05-07T01:18:45;1.30;;;0.57;;
72113;SDS011;59989;46.220;19.888;2023-05-07T01:21:51;0.87;;;0.30;;
72113;SDS011;59989;46.220;19.888;2023-05-07T01:24:59;1.37;;;0.63;;
72113;SDS011;59989;46.220;19.888;2023-05-07T01:28:04;0.90;;;0.30;;
72113;SDS011;59989;46.220;19.888;2023-05-07T01:31:10;1.27;;;0.40;;
72113;SDS011;59989;46.220;19.888;2023-05-07T01:34:14;1.38;;;0.50;;
72113;SDS011;59989;46.220;19.888;2023-05-07T01:37:20;0.90;;;0.30;;
72113;SDS011;59989;46.220;19.888;2023-05-07T01:40:24;1.00;;;0.40;;
72113;SDS011;59989;46.220;19.888;2023-05-07T01:43:28;1.77;;;0.60;;
72113;SDS011;59989;46.220;19.888;2023-05-07T01:46:32;1.45;;;0.52;;
72113;SDS011;59989;46.220;19.888;2023-05-07T01:49:35;1.27;;;0.40;;
72113;SDS011;59989;46.220;19.888;2023-05-07T01:52:38;0.80;;;0.30;;
72113;SDS011;59989;46.220;19.888;2023-05-07T01:55:41;1.20;;;0.57;;
72113;SDS011;59989;46.220;19.888;2023-05-07T01:58:47;1.10;;;0.40;;
72113;SDS011;59989;46.220;19.888;2023-05-07T02:01:50;1.63;;;0.60;;
72113;SDS011;59989;46.220;19.888;2023-05-07T02:04:52;1.20;;;0.65;;
72113;SDS011;59989;46.220;19.888;2023-05-07T02:07:56;1.27;;;0.43;;
72113;SDS011;59989;46.220;19.888;2023-05-07T02:11:00;0.90;;;0.30;;
72113;SDS011;59989;46.220;19.888;2023-05-07T02:14:04;0.93;;;0.30;;
72113;SDS011;59989;46.220;19.888;2023-05-07T02:17:07;1.25;;;0.32;;
72113;SDS011;59989;46.220;19.888;2023-05-07T02:20:10;1.75;;;0.50;;
72113;SDS011;59989;46.220;19.888;2023-05-07T02:23:16;1.00;;;0.37;;
72113;SDS011;59989;46.220;19.888;2023-05-07T02:26:19;1.23;;;0.50;;
72113;SDS011;59989;46.220;19.888;2023-05-07T02:29:21;1.30;;;0.55;;
72113;SDS011;59989;46.220;19.888;2023-05-07T02:32:24;1.20;;;0.38;;
72113;SDS011;59989;46.220;19.888;2023-05-07T02:35:27;0.70;;;0.30;;
72113;SDS011;59989;46.220;19.888;2023-05-07T02:38:29;1.33;;;0.47;;
72113;SDS011;59989;46.220;19.888;2023-05-07T02:41:32;1.30;;;0.40;;
72113;SDS011;59989;46.220;19.888;2023-05-07T02:44:34;0.90;;;0.30;;
72113;SDS011;59989;46.220;19.888;2023-05-07T02:47:37;1.38;;;0.60;;
72113;SDS011;59989;46.220;19.888;2023-05-07T02:50:40;1.25;;;0.40;;
72113;SDS011;59989;46.220;19.888;2023-05-07T02:53:43;1.33;;;0.60;;
72113;SDS011;59989;46.220;19.888;2023-05-07T02:56:45;1.43;;;0.50;;
72113;SDS011;59989;46.220;19.888;2023-05-07T02:59:48;1.63;;;0.70;;
72113;SDS011;59989;46.220;19.888;2023-05-07T03:02:51;1.48;;;0.65;;
72113;SDS011;59989;46.220;19.888;2023-05-07T03:05:54;1.98;;;0.80;;
72113;SDS011;59989;46.220;19.888;2023-05-07T03:08:56;0.80;;;0.30;;
72113;SDS011;59989;46.220;19.888;2023-05-07T03:11:59;1.07;;;0.40;;
72113;SDS011;59989;46.220;19.888;2023-05-07T03:15:03;1.15;;;0.35;;
72113;SDS011;59989;46.220;19.888;2023-05-07T03:18:06;1.40;;;0.70;;
72113;SDS011;59989;46.220;19.888;2023-05-07T03:21:09;0.82;;;0.30;;
72113;SDS011;59989;46.220;19.888;2023-05-07T03:24:12;1.03;;;0.40;;
72113;SDS011;59989;46.220;19.888;2023-05-07T03:27:14;1.20;;;0.40;;
72113;SDS011;59989;46.220;19.888;2023-05-07T03:30:17;0.68;;;0.20;;
72113;SDS011;59989;46.220;19.888;2023-05-07T03:33:21;0.95;;;0.32;;
72113;SDS011;59989;46.220;19.888;2023-05-07T03:36:24;1.25;;;0.40;;
72113;SDS011;59989;46.220;19.888;2023-05-07T03:39:30;2.10;;;0.73;;
72113;SDS011;59989;46.220;19.888;2023-05-07T03:42:34;0.97;;;0.30;;
72113;SDS011;59989;46.220;19.888;2023-05-07T03:45:37;1.13;;;0.43;;
72113;SDS011;59989;46.220;19.888;2023-05-07T03:48:53;1.50;;;0.50;;
72113;SDS011;59989;46.220;19.888;2023-05-07T03:51:56;0.88;;;0.30;;
72113;SDS011;59989;46.220;19.888;2023-05-07T03:54:58;1.10;;;0.40;;
72113;SDS011;59989;46.220;19.888;2023-05-07T03:58:01;1.13;;;0.40;;
72113;SDS011;59989;46.220;19.888;2023-05-07T04:01:04;1.02;;;0.45;;
72113;SDS011;59989;46.220;19.888;2023-05-07T04:04:07;0.82;;;0.32;;
72113;SDS011;59989;46.220;19.888;2023-05-07T04:07:11;1.05;;;0.50;;
72113;SDS011;59989;46.220;19.888;2023-05-07T04:10:17;0.80;;;0.30;;
72113;SDS011;59989;46.220;19.888;2023-05-07T04:13:22;0.83;;;0.23;;
72113;SDS011;59989;46.220;19.888;2023-05-07T04:16:25;0.98;;;0.35;;
72113;SDS011;59989;46.220;19.888;2023-05-07T04:19:28;0.82;;;0.32;;
72113;SDS011;59989;46.220;19.888;2023-05-07T04:22:31;0.90;;;0.30;;
72113;SDS011;59989;46.220;19.888;2023-05-07T04:25:33;1.13;;;0.40;;
72113;SDS011;59989;46.220;19.888;2023-05-07T04:28:43;1.10;;;0.30;;
72113;SDS011;59989;46.220;19.888;2023-05-07T04:31:46;0.80;;;0.30;;
72113;SDS011;59989;46.220;19.888;2023-05-07T04:34:49;1.27;;;0.40;;
72113;SDS011;59989;46.220;19.888;2023-05-07T04:37:51;0.90;;;0.30;;
72113;SDS011;59989;46.220;19.888;2023-05-07T04:40:54;1.10;;;0.40;;
72113;SDS011;59989;46.220;19.888;2023-05-07T04:43:59;1.07;;;0.37;;
72113;SDS011;59989;46.220;19.888;2023-05-07T04:47:05;1.40;;;0.40;;
72113;SDS011;59989;46.220;19.888;2023-05-07T04:50:07;1.20;;;0.52;;
72113;SDS011;59989;46.220;19.888;2023-05-07T04:53:11;1.70;;;0.55;;
72113;SDS011;59989;46.220;19.888;2023-05-07T04:56:14;0.80;;;0.30;;
72113;SDS011;59989;46.220;19.888;2023-05-07T04:59:19;0.97;;;0.40;;
72113;SDS011;59989;46.220;19.888;2023-05-07T05:02:22;1.30;;;0.60;;
72113;SDS011;59989;46.220;19.888;2023-05-07T05:05:25;2.13;;;0.70;;
72113;SDS011;59989;46.220;19.888;2023-05-07T05:08:29;0.70;;;0.30;;
72113;SDS011;59989;46.220;19.888;2023-05-07T05:11:34;1.37;;;0.50;;
72113;SDS011;59989;46.220;19.888;2023-05-07T05:14:36;0.97;;;0.40;;
72113;SDS011;59989;46.220;19.888;2023-05-07T05:17:39;1.25;;;0.45;;
72113;SDS011;59989;46.220;19.888;2023-05-07T05:20:42;1.67;;;0.65;;
72113;SDS011;59989;46.220;19.888;2023-05-07T05:23:46;0.90;;;0.30;;
72113;SDS011;59989;46.220;19.888;2023-05-07T05:26:53;1.40;;;0.53;;
72113;SDS011;59989;46.220;19.888;2023-05-07T05:29:56;1.17;;;0.43;;
72113;SDS011;59989;46.220;19.888;2023-05-07T05:32:59;1.80;;;0.80;;
72113;SDS011;59989;46.220;19.888;2023-05-07T05:36:02;1.88;;;0.75;;
72113;SDS011;59989;46.220;19.888;2023-05-07T05:39:06;1.83;;;0.73;;
72113;SDS011;59989;46.220;19.888;2023-05-07T05:42:08;3.50;;;0.70;;
72113;SDS011;59989;46.220;19.888;2023-05-07T05:45:11;1.57;;;0.60;;
72113;SDS011;59989;46.220;19.888;2023-05-07T05:48:15;1.30;;;0.40;;
72113;SDS011;59989;46.220;19.888;2023-05-07T05:51:17;1.17;;;0.50;;
72113;SDS011;59989;46.220;19.888;2023-05-07T05:54:20;1.77;;;0.43;;
72113;SDS011;59989;46.220;19.888;2023-05-07T05:57:23;1.57;;;0.50;;
72113;SDS011;59989;46.220;19.888;2023-05-07T06:00:28;0.70;;;0.30;;
72113;SDS011;59989;46.220;19.888;2023-05-07T06:03:36;1.08;;;0.40;;
72113;SDS011;59989;46.220;19.888;2023-05-07T06:06:45;1.30;;;0.50;;
72113;SDS011;59989;46.220;19.888;2023-05-07T06:09:48;1.40;;;0.40;;
72113;SDS011;59989;46.220;19.888;2023-05-07T06:12:50;1.20;;;0.40;;
72113;SDS011;59989;46.220;19.888;2023-05-07T06:15:53;1.77;;;0.63;;
72113;SDS011;59989;46.220;19.888;2023-05-07T06:18:55;0.90;;;0.30;;
72113;SDS011;59989;46.220;19.888;2023-05-07T06:21:58;2.08;;;0.65;;
72113;SDS011;59989;46.220;19.888;2023-05-07T06:25:04;1.30;;;0.50;;
72113;SDS011;59989;46.220;19.888;2023-05-07T06:28:08;2.43;;;0.70;;
72113;SDS011;59989;46.220;19.888;2023-05-07T06:31:16;0.93;;;0.33;;
72113;SDS011;59989;46.220;19.888;2023-05-07T06:34:29;1.13;;;0.30;;
72113;SDS011;59989;46.220;19.888;2023-05-07T06:37:32;0.98;;;0.38;;
72113;SDS011;59989;46.220;19.888;2023-05-07T06:40:37;1.60;;;0.50;;
72113;SDS011;59989;46.220;19.888;2023-05-07T06:43:40;1.03;;;0.40;;
72113;SDS011;59989;46.220;19.888;2023-05-07T06:47:01;1.40;;;0.50;;
72113;SDS011;59989;46.220;19.888;2023-05-07T06:50:04;1.55;;;0.63;;
72113;SDS011;59989;46.220;19.888;2023-05-07T06:53:08;1.42;;;0.47;;
72113;SDS011;59989;46.220;19.888;2023-05-07T06:56:10;1.85;;;0.70;;
72113;SDS011;59989;46.220;19.888;2023-05-07T06:59:14;1.63;;;0.57;;
72113;SDS011;59989;46.220;19.888;2023-05-07T07:02:18;1.37;;;0.50;;
72113;SDS011;59989;46.220;19.888;2023-05-07T07:05:23;2.10;;;0.70;;
72113;SDS011;59989;46.220;19.888;2023-05-07T07:08:26;2.38;;;0.60;;
72113;SDS011;59989;46.220;19.888;2023-05-07T07:11:29;1.80;;;0.77;;
72113;SDS011;59989;46.220;19.888;2023-05-07T07:14:31;1.35;;;0.52;;
72113;SDS011;59989;46.220;19.888;2023-05-07T07:17:34;1.33;;;0.50;;
72113;SDS011;59989;46.220;19.888;2023-05-07T07:20:37;1.73;;;0.57;;
72113;SDS011;59989;46.220;19.888;2023-05-07T07:23:42;1.80;;;0.70;;
72113;SDS011;59989;46.220;19.888;2023-05-07T07:26:45;1.98;;;0.73;;
72113;SDS011;59989;46.220;19.888;2023-05-07T07:29:48;1.60;;;0.68;;
72113;SDS011;59989;46.220;19.888;2023-05-07T07:32:50;1.90;;;0.70;;
72113;SDS011;59989;46.220;19.888;2023-05-07T07:35:55;1.60;;;0.60;;
72113;SDS011;59989;46.220;19.888;2023-05-07T07:38:57;1.95;;;0.60;;
72113;SDS011;59989;46.220;19.888;2023-05-07T07:42:00;1.75;;;0.70;;
72113;SDS011;59989;46.220;19.888;2023-05-07T07:45:05;1.98;;;0.65;;
72113;SDS011;59989;46.220;19.888;2023-05-07T07:48:11;1.90;;;0.67;;
72113;SDS011;59989;46.220;19.888;2023-05-07T07:51:14;1.42;;;0.50;;
72113;SDS011;59989;46.220;19.888;2023-05-07T07:54:16;1.63;;;0.70;;
72113;SDS011;59989;46.220;19.888;2023-05-07T07:57:20;1.75;;;0.60;;
72113;SDS011;59989;46.220;19.888;2023-05-07T08:00:23;1.83;;;0.68;;
72113;SDS011;59989;46.220;19.888;2023-05-07T08:03:30;1.77;;;0.70;;
72113;SDS011;59989;46.220;19.888;2023-05-07T08:06:36;2.53;;;0.80;;
72113;SDS011;59989;46.220;19.888;2023-05-07T08:09:40;3.17;;;0.65;;
72113;SDS011;59989;46.220;19.888;2023-05-07T08:12:44;1.40;;;0.50;;
72113;SDS011;59989;46.220;19.888;2023-05-07T08:15:47;2.28;;;0.90;;
72113;SDS011;59989;46.220;19.888;2023-05-07T08:18:50;2.20;;;0.93;;
72113;SDS011;59989;46.220;19.888;2023-05-07T08:21:52;1.90;;;0.68;;
72113;SDS011;59989;46.220;19.888;2023-05-07T08:24:57;2.10;;;0.77;;
72113;SDS011;59989;46.220;19.888;2023-05-07T08:27:59;1.75;;;0.70;;
72113;SDS011;59989;46.220;19.888;2023-05-07T08:31:02;1.67;;;0.60;;
72113;SDS011;59989;46.220;19.888;2023-05-07T08:34:10;1.50;;;0.60;;
72113;SDS011;59989;46.220;19.888;2023-05-07T08:37:16;2.53;;;0.80;;
72113;SDS011;59989;46.220;19.888;2023-05-07T08:40:20;1.70;;;0.60;;
72113;SDS011;59989;46.220;19.888;2023-05-07T08:43:27;1.65;;;0.57;;
72113;SDS011;59989;46.220;19.888;2023-05-07T08:46:33;2.05;;;0.80;;
72113;SDS011;59989;46.220;19.888;2023-05-07T08:49:36;1.40;;;0.50;;
72113;SDS011;59989;46.220;19.888;2023-05-07T08:52:42;1.60;;;0.52;;
72113;SDS011;59989;46.220;19.888;2023-05-07T08:55:46;1.17;;;0.40;;
72113;SDS011;59989;46.220;19.888;2023-05-07T08:58:50;2.15;;;0.80;;
72113;SDS011;59989;46.220;19.888;2023-05-07T09:01:53;1.30;;;0.50;;
72113;SDS011;59989;46.220;19.888;2023-05-07T09:04:56;1.63;;;0.70;;
72113;SDS011;59989;46.220;19.888;2023-05-07T09:07:59;1.73;;;0.60;;
72113;SDS011;59989;46.220;19.888;2023-05-07T09:11:04;2.58;;;1.13;;
72113;SDS011;59989;46.220;19.888;2023-05-07T09:14:07;1.98;;;0.70;;
72113;SDS011;59989;46.220;19.888;2023-05-07T09:17:17;2.38;;;1.00;;
72113;SDS011;59989;46.220;19.888;2023-05-07T09:20:20;1.63;;;0.60;;
72113;SDS011;59989;46.220;19.888;2023-05-07T09:23:23;1.35;;;0.50;;
72113;SDS011;59989;46.220;19.888;2023-05-07T09:26:25;2.08;;;0.75;;
72113;SDS011;59989;46.220;19.888;2023-05-07T09:29:30;1.60;;;0.52;;
72113;SDS011;59989;46.220;19.888;2023-05-07T09:32:41;3.20;;;1.13;;
72113;SDS011;59989;46.220;19.888;2023-05-07T09:35:53;3.00;;;1.07;;
72113;SDS011;59989;46.220;19.888;2023-05-07T09:38:58;4.15;;;1.00;;
72113;SDS011;59989;46.220;19.888;2023-05-07T09:42:02;2.47;;;0.90;;
72113;SDS011;59989;46.220;19.888;2023-05-07T09:45:09;2.03;;;0.80;;
72113;SDS011;59989;46.220;19.888;2023-05-07T09:48:15;1.88;;;0.70;;
72113;SDS011;59989;46.220;19.888;2023-05-07T09:51:22;1.87;;;0.60;;
72113;SDS011;59989;46.220;19.888;2023-05-07T09:54:32;1.67;;;0.60;;
72113;SDS011;59989;46.220;19.888;2023-05-07T09:57:36;2.85;;;0.90;;
72113;SDS011;59989;46.220;19.888;2023-05-07T10:00:42;2.13;;;0.80;;
72113;SDS011;59989;46.220;19.888;2023-05-07T10:03:49;2.40;;;0.95;;
72113;SDS011;59989;46.220;19.888;2023-05-07T10:06:53;2.40;;;0.90;;
72113;SDS011;59989;46.220;19.888;2023-05-07T10:09:58;1.80;;;0.60;;
72113;SDS011;59989;46.220;19.888;2023-05-07T10:13:07;1.90;;;0.60;;
72113;SDS011;59989;46.220;19.888;2023-05-07T10:16:16;1.88;;;0.68;;
72113;SDS011;59989;46.220;19.888;2023-05-07T10:19:22;2.33;;;0.90;;
72113;SDS011;59989;46.220;19.888;2023-05-07T10:22:28;1.80;;;0.60;;
72113;SDS011;59989;46.220;19.888;2023-05-07T10:25:41;1.85;;;0.70;;
72113;SDS011;59989;46.220;19.888;2023-05-07T10:28:54;2.95;;;0.98;;
72113;SDS011;59989;46.220;19.888;2023-05-07T10:32:38;1.80;;;0.60;;
72113;SDS011;59989;46.220;19.888;2023-05-07T10:35:43;2.13;;;0.80;;
72113;SDS011;59989;46.220;19.888;2023-05-07T10:38:49;1.97;;;0.70;;
72113;SDS011;59989;46.220;19.888;2023-05-07T10:41:52;1.95;;;0.60;;
72113;SDS011;59989;46.220;19.888;2023-05-07T10:44:57;1.83;;;0.63;;
72113;SDS011;59989;46.220;19.888;2023-05-07T10:51:34;2.22;;;0.85;;
72113;SDS011;59989;46.220;19.888;2023-05-07T10:55:18;2.13;;;0.90;;
72113;SDS011;59989;46.220;19.888;2023-05-07T10:58:41;1.70;;;0.50;;
72113;SDS011;59989;46.220;19.888;2023-05-07T11:02:04;1.20;;;0.50;;
72113;SDS011;59989;46.220;19.888;2023-05-07T11:05:20;2.00;;;0.65;;
72113;SDS011;59989;46.220;19.888;2023-05-07T11:11:59;1.87;;;0.77;;
72113;SDS011;59989;46.220;19.888;2023-05-07T11:15:10;2.97;;;0.90;;
72113;SDS011;59989;46.220;19.888;2023-05-07T11:18:15;2.28;;;0.80;;
72113;SDS011;59989;46.220;19.888;2023-05-07T11:21:33;1.98;;;0.77;;
72113;SDS011;59989;46.220;19.888;2023-05-07T11:24:49;2.93;;;1.23;;
72113;SDS011;59989;46.220;19.888;2023-05-07T11:27:51;1.50;;;0.50;;
72113;SDS011;59989;46.220;19.888;2023-05-07T11:30:54;1.75;;;0.60;;
72113;SDS011;59989;46.220;19.888;2023-05-07T11:33:59;2.15;;;0.80;;
72113;SDS011;59989;46.220;19.888;2023-05-07T11:37:02;2.25;;;0.77;;
72113;SDS011;59989;46.220;19.888;2023-05-07T11:40:15;2.05;;;0.77;;
72113;SDS011;59989;46.220;19.888;2023-05-07T11:43:18;1.80;;;0.50;;
72113;SDS011;59989;46.220;19.888;2023-05-07T11:46:21;1.75;;;0.70;;
72113;SDS011;59989;46.220;19.888;2023-05-07T11:49:24;2.00;;;0.70;;
72113;SDS011;59989;46.220;19.888;2023-05-07T11:52:27;1.35;;;0.50;;
72113;SDS011;59989;46.220;19.888;2023-05-07T11:55:30;1.70;;;0.60;;
72113;SDS011;59989;46.220;19.888;2023-05-07T11:58:33;1.83;;;0.70;;
72113;SDS011;59989;46.220;19.888;2023-05-07T12:01:35;1.40;;;0.50;;
72113;SDS011;59989;46.220;19.888;2023-05-07T12:04:39;1.63;;;0.50;;
72113;SDS011;59989;46.220;19.888;2023-05-07T12:07:42;2.42;;;0.82;;
72113;SDS011;59989;46.220;19.888;2023-05-07T12:10:46;1.30;;;0.50;;
72113;SDS011;59989;46.220;19.888;2023-05-07T12:13:50;1.50;;;0.50;;
72113;SDS011;59989;46.220;19.888;2023-05-07T12:16:52;2.20;;;0.60;;
72113;SDS011;59989;46.220;19.888;2023-05-07T12:19:55;1.67;;;0.68;;
72113;SDS011;59989;46.220;19.888;2023-05-07T12:22:57;2.28;;;0.90;;
72113;SDS011;59989;46.220;19.888;2023-05-07T12:26:00;1.30;;;0.50;;
72113;SDS011;59989;46.220;19.888;2023-05-07T12:29:06;1.87;;;0.70;;
72113;SDS011;59989;46.220;19.888;2023-05-07T12:32:12;1.98;;;0.70;;
72113;SDS011;59989;46.220;19.888;2023-05-07T12:35:17;2.15;;;0.80;;
72113;SDS011;59989;46.220;19.888;2023-05-07T12:38:19;2.03;;;0.80;;
72113;SDS011;59989;46.220;19.888;2023-05-07T12:41:22;2.63;;;0.98;;
72113;SDS011;59989;46.220;19.888;2023-05-07T12:44:30;1.70;;;0.63;;
72113;SDS011;59989;46.220;19.888;2023-05-07T12:47:34;2.00;;;0.75;;
72113;SDS011;59989;46.220;19.888;2023-05-07T12:50:36;3.58;;;1.40;;
72113;SDS011;59989;46.220;19.888;2023-05-07T12:53:39;2.80;;;1.10;;
72113;SDS011;59989;46.220;19.888;2023-05-07T12:56:44;2.80;;;1.30;;
72113;SDS011;59989;46.220;19.888;2023-05-07T12:59:47;3.87;;;1.40;;
72113;SDS011;59989;46.220;19.888;2023-05-07T13:02:49;3.65;;;1.60;;
72113;SDS011;59989;46.220;19.888;2023-05-07T13:05:53;4.07;;;1.88;;
72113;SDS011;59989;46.220;19.888;2023-05-07T13:08:59;3.50;;;1.40;;
72113;SDS011;59989;46.220;19.888;2023-05-07T13:12:02;4.25;;;1.55;;
72113;SDS011;59989;46.220;19.888;2023-05-07T13:15:06;4.17;;;1.53;;
72113;SDS011;59989;46.220;19.888;2023-05-07T13:18:09;3.83;;;1.55;;
72113;SDS011;59989;46.220;19.888;2023-05-07T13:21:13;3.75;;;1.70;;
72113;SDS011;59989;46.220;19.888;2023-05-07T13:24:21;4.03;;;1.70;;
72113;SDS011;59989;46.220;19.888;2023-05-07T13:27:23;4.78;;;1.90;;
72113;SDS011;59989;46.220;19.888;2023-05-07T13:30:26;5.70;;;1.70;;
72113;SDS011;59989;46.220;19.888;2023-05-07T13:33:28;4.55;;;1.70;;
72113;SDS011;59989;46.220;19.888;2023-05-07T13:36:31;4.40;;;1.83;;
72113;SDS011;59989;46.220;19.888;2023-05-07T13:39:37;4.70;;;1.88;;
72113;SDS011;59989;46.220;19.888;2023-05-07T13:42:40;4.18;;;1.75;;
72113;SDS011;59989;46.220;19.888;2023-05-07T13:45:43;4.50;;;1.90;;
72113;SDS011;59989;46.220;19.888;2023-05-07T13:48:46;3.53;;;1.58;;
72113;SDS011;59989;46.220;19.888;2023-05-07T13:51:48;3.10;;;1.30;;
72113;SDS011;59989;46.220;19.888;2023-05-07T13:54:50;3.03;;;1.05;;
72113;SDS011;59989;46.220;19.888;2023-05-07T13:57:57;2.50;;;1.08;;
72113;SDS011;59989;46.220;19.888;2023-05-07T14:01:01;2.00;;;0.70;;
72113;SDS011;59989;46.220;19.888;2023-05-07T14:04:04;2.50;;;0.70;;
72113;SDS011;59989;46.220;19.888;2023-05-07T14:07:07;3.13;;;1.10;;
72113;SDS011;59989;46.220;19.888;2023-05-07T14:10:09;1.92;;;0.73;;
72113;SDS011;59989;46.220;19.888;2023-05-07T14:13:13;2.60;;;0.88;;
72113;SDS011;59989;46.220;19.888;2023-05-07T14:16:16;2.57;;;0.80;;
72113;SDS011;59989;46.220;19.888;2023-05-07T14:19:18;2.30;;;0.73;;
72113;SDS011;59989;46.220;19.888;2023-05-07T14:22:21;2.22;;;0.77;;
72113;SDS011;59989;46.220;19.888;2023-05-07T14:25:24;1.55;;;0.52;;
72113;SDS011;59989;46.220;19.888;2023-05-07T14:28:27;3.05;;;1.02;;
72113;SDS011;59989;46.220;19.888;2023-05-07T14:31:29;1.80;;;0.53;;
72113;SDS011;59989;46.220;19.888;2023-05-07T14:34:32;1.75;;;0.57;;
72113;SDS011;59989;46.220;19.888;2023-05-07T14:37:34;1.58;;;0.52;;
72113;SDS011;59989;46.220;19.888;2023-05-07T14:40:36;2.90;;;0.90;;
72113;SDS011;59989;46.220;19.888;2023-05-07T14:43:39;2.95;;;0.98;;
72113;SDS011;59989;46.220;19.888;2023-05-07T14:46:41;1.60;;;0.60;;
72113;SDS011;59989;46.220;19.888;2023-05-07T14:49:44;2.15;;;0.80;;
72113;SDS011;59989;46.220;19.888;2023-05-07T14:52:46;1.73;;;0.63;;
72113;SDS011;59989;46.220;19.888;2023-05-07T14:55:49;2.60;;;0.55;;
72113;SDS011;59989;46.220;19.888;2023-05-07T14:58:51;2.45;;;1.00;;
72113;SDS011;59989;46.220;19.888;2023-05-07T15:01:54;2.30;;;0.90;;
72113;SDS011;59989;46.220;19.888;2023-05-07T15:04:57;1.63;;;0.57;;
72113;SDS011;59989;46.220;19.888;2023-05-07T15:08:01;1.90;;;0.68;;
72113;SDS011;59989;46.220;19.888;2023-05-07T15:11:04;1.85;;;0.63;;
72113;SDS011;59989;46.220;19.888;2023-05-07T15:14:06;2.28;;;0.73;;
72113;SDS011;59989;46.220;19.888;2023-05-07T15:17:09;2.10;;;1.00;;
72113;SDS011;59989;46.220;19.888;2023-05-07T15:20:12;1.67;;;0.50;;
72113;SDS011;59989;46.220;19.888;2023-05-07T15:23:14;1.67;;;0.70;;
72113;SDS011;59989;46.220;19.888;2023-05-07T15:26:21;1.50;;;0.50;;
72113;SDS011;59989;46.220;19.888;2023-05-07T15:29:23;3.30;;;1.10;;
72113;SDS011;59989;46.220;19.888;2023-05-07T15:32:27;2.03;;;0.83;;
72113;SDS011;59989;46.220;19.888;2023-05-07T15:35:29;1.35;;;0.50;;
72113;SDS011;59989;46.220;19.888;2023-05-07T15:38:32;1.38;;;0.52;;
72113;SDS011;59989;46.220;19.888;2023-05-07T15:41:34;1.10;;;0.35;;
72113;SDS011;59989;46.220;19.888;2023-05-07T15:44:38;1.00;;;0.37;;
72113;SDS011;59989;46.220;19.888;2023-05-07T15:47:41;2.70;;;1.07;;
72113;SDS011;59989;46.220;19.888;2023-05-07T15:50:44;2.08;;;0.68;;
72113;SDS011;59989;46.220;19.888;2023-05-07T15:53:48;1.23;;;0.47;;
72113;SDS011;59989;46.220;19.888;2023-05-07T15:56:51;1.52;;;0.57;;
72113;SDS011;59989;46.220;19.888;2023-05-07T15:59:53;1.13;;;0.40;;
72113;SDS011;59989;46.220;19.888;2023-05-07T16:02:56;2.63;;;0.80;;
72113;SDS011;59989;46.220;19.888;2023-05-07T16:05:59;1.20;;;0.40;;
72113;SDS011;59989;46.220;19.888;2023-05-07T16:09:04;1.67;;;0.68;;
72113;SDS011;59989;46.220;19.888;2023-05-07T16:12:07;2.60;;;0.88;;
72113;SDS011;59989;46.220;19.888;2023-05-07T16:15:09;1.07;;;0.40;;
72113;SDS011;59989;46.220;19.888;2023-05-07T16:18:12;0.90;;;0.33;;
72113;SDS011;59989;46.220;19.888;2023-05-07T16:21:18;1.63;;;0.50;;
72113;SDS011;59989;46.220;19.888;2023-05-07T16:24:20;2.58;;;1.13;;
72113;SDS011;59989;46.220;19.888;2023-05-07T16:27:23;2.25;;;0.63;;
72113;SDS011;59989;46.220;19.888;2023-05-07T16:30:25;1.50;;;0.53;;
72113;SDS011;59989;46.220;19.888;2023-05-07T16:33:28;1.50;;;0.50;;
72113;SDS011;59989;46.220;19.888;2023-05-07T16:36:30;1.10;;;0.40;;
72113;SDS011;59989;46.220;19.888;2023-05-07T16:39:33;3.63;;;0.70;;
72113;SDS011;59989;46.220;19.888;2023-05-07T16:42:35;2.47;;;0.77;;
72113;SDS011;59989;46.220;19.888;2023-05-07T16:45:38;1.47;;;0.50;;
72113;SDS011;59989;46.220;19.888;2023-05-07T16:48:40;1.63;;;0.50;;
72113;SDS011;59989;46.220;19.888;2023-05-07T16:51:43;1.88;;;0.70;;
72113;SDS011;59989;46.220;19.888;2023-05-07T16:54:47;1.65;;;0.50;;
72113;SDS011;59989;46.220;19.888;2023-05-07T16:57:50;1.63;;;0.60;;
72113;SDS011;59989;46.220;19.888;2023-05-07T17:00:52;1.17;;;0.40;;
72113;SDS011;59989;46.220;19.888;2023-05-07T17:03:54;4.53;;;1.10;;
72113;SDS011;59989;46.220;19.888;2023-05-07T17:06:57;2.17;;;0.68;;
72113;SDS011;59989;46.220;19.888;2023-05-07T17:10:00;1.63;;;0.50;;
72113;SDS011;59989;46.220;19.888;2023-05-07T17:13:03;1.63;;;0.65;;
72113;SDS011;59989;46.220;19.888;2023-05-07T17:16:06;1.73;;;0.70;;
72113;SDS011;59989;46.220;19.888;2023-05-07T17:19:09;1.83;;;0.80;;
72113;SDS011;59989;46.220;19.888;2023-05-07T17:22:11;1.85;;;0.55;;
72113;SDS011;59989;46.220;19.888;2023-05-07T17:25:14;1.48;;;0.60;;
72113;SDS011;59989;46.220;19.888;2023-05-07T17:28:16;1.25;;;0.50;;
72113;SDS011;59989;46.220;19.888;2023-05-07T17:31:19;1.30;;;0.50;;
72113;SDS011;59989;46.220;19.888;2023-05-07T17:34:22;0.97;;;0.33;;
72113;SDS011;59989;46.220;19.888;2023-05-07T17:37:24;2.30;;;0.82;;
72113;SDS011;59989;46.220;19.888;2023-05-07T17:40:27;0.95;;;0.40;;
72113;SDS011;59989;46.220;19.888;2023-05-07T17:43:33;2.00;;;0.60;;
72113;SDS011;59989;46.220;19.888;2023-05-07T17:46:35;2.17;;;0.77;;
72113;SDS011;59989;46.220;19.888;2023-05-07T17:49:38;2.50;;;1.30;;
72113;SDS011;59989;46.220;19.888;2023-05-07T17:52:41;1.95;;;0.70;;
72113;SDS011;59989;46.220;19.888;2023-05-07T17:55:44;1.35;;;0.50;;
72113;SDS011;59989;46.220;19.888;2023-05-07T17:58:47;0.95;;;0.30;;
72113;SDS011;59989;46.220;19.888;2023-05-07T18:02:00;1.10;;;0.43;;
72113;SDS011;59989;46.220;19.888;2023-05-07T18:05:03;1.23;;;0.43;;
72113;SDS011;59989;46.220;19.888;2023-05-07T18:08:06;2.15;;;0.77;;
72113;SDS011;59989;46.220;19.888;2023-05-07T18:11:08;1.33;;;0.40;;
72113;SDS011;59989;46.220;19.888;2023-05-07T18:14:11;3.30;;;0.63;;
72113;SDS011;59989;46.220;19.888;2023-05-07T18:17:15;2.50;;;0.80;;
72113;SDS011;59989;46.220;19.888;2023-05-07T18:20:17;1.60;;;0.57;;